createdAt,value
2019-02-05T20:45:40.131Z,-1.00
2019-02-05T20:48:18.396Z,-1.00
2019-02-05T20:50:47.321Z,-0.90
2019-02-05T20:53:16.962Z,-1.00
2019-02-05T20:55:45.936Z,-1.00
2019-02-05T20:58:14.885Z,-1.00
2019-02-05T21:00:43.845Z,-1.00
2019-02-05T21:03:12.836Z,-1.10
2019-02-05T21:05:42.217Z,-1.10
2019-02-05T21:08:11.215Z,-1.10
2019-02-05T21:10:40.149Z,-1.20
2019-02-05T21:13:09.120Z,-1.10
2019-02-05T21:15:38.120Z,-1.10
2019-02-05T21:18:07.115Z,-1.10
2019-02-05T21:20:36.125Z,-1.20
2019-02-05T21:23:05.535Z,-1.10
2019-02-05T21:25:34.577Z,-1.20
2019-02-05T21:28:03.581Z,-1.20
2019-02-05T21:30:32.521Z,-1.30
2019-02-05T21:33:01.464Z,-1.30
2019-02-05T21:35:30.473Z,-1.30
2019-02-05T21:37:59.830Z,-1.20
2019-02-05T21:40:31.471Z,-1.10
2019-02-05T21:42:59.489Z,-1.20
2019-02-05T21:45:28.505Z,-1.20
2019-02-05T21:47:57.533Z,-1.20
2019-02-05T21:50:26.486Z,-1.20
2019-02-05T21:52:55.478Z,-1.20
2019-02-05T21:55:24.589Z,-1.20
2019-02-05T21:57:53.590Z,-1.10
2019-02-05T22:00:27.556Z,-1.10
2019-02-05T22:02:56.748Z,-1.30
2019-02-05T22:05:26.096Z,-1.30
2019-02-05T22:07:55.168Z,-1.30
2019-02-05T22:10:24.514Z,-1.40
2019-02-05T22:12:53.491Z,-1.40
2019-02-05T22:15:23.012Z,-1.40
2019-02-05T22:17:52.084Z,-1.40
2019-02-05T22:20:23.242Z,-1.40
2019-02-05T22:22:52.252Z,-1.50
2019-02-05T22:25:26.152Z,-1.50
2019-02-05T22:27:55.260Z,-1.50
2019-02-05T22:30:29.263Z,-1.50
2019-02-05T22:32:58.328Z,-1.60
2019-02-05T22:35:27.425Z,-1.60
2019-02-05T22:37:56.490Z,-1.70
2019-02-05T22:40:26.583Z,-1.70
2019-02-05T22:42:56.199Z,-1.80
2019-02-05T22:45:27.434Z,-1.80
2019-02-05T22:47:56.444Z,-1.80
2019-02-05T22:50:27.369Z,-1.80
2019-02-05T22:52:56.485Z,-1.70
2019-02-05T22:55:25.586Z,-1.70
2019-02-05T22:57:54.550Z,-1.60
2019-02-05T23:00:48.237Z,-1.50
2019-02-05T23:03:20.288Z,-1.50
2019-02-05T23:06:14.595Z,-1.60
2019-02-05T23:08:43.615Z,-1.60
2019-02-05T23:11:28.985Z,-1.60
2019-02-05T23:13:57.973Z,-1.60
2019-02-05T23:16:27.064Z,-1.50
2019-02-05T23:18:56.069Z,-1.60
2019-02-05T23:21:25.084Z,-1.60
2019-02-05T23:23:54.080Z,-1.60
2019-02-05T23:26:24.111Z,-1.70
2019-02-05T23:28:53.155Z,-1.70
2019-02-05T23:31:22.157Z,-1.70
2019-02-05T23:33:51.180Z,-1.70
2019-02-05T23:36:20.246Z,-1.80
2019-02-05T23:38:49.265Z,-1.80
2019-02-05T23:41:18.209Z,-1.70
2019-02-05T23:43:47.133Z,-1.60
2019-02-05T23:46:16.149Z,-1.70
2019-02-05T23:48:45.091Z,-1.80
2019-02-05T23:51:14.087Z,-1.80
2019-02-05T23:53:43.006Z,-1.70
2019-02-05T23:56:12.342Z,-1.60
2019-02-05T23:58:41.272Z,-1.70
